sensor_id;sensor_type;location;lat;lon;timestamp;pressure;altitude;pressure_sealevel;temperature;humidity
65557;BME280;52200;53.490;14.376;2023-03-03T00:00:40;102185.09;;;-0.34;97.29
65557;BME280;52200;53.490;14.376;2023-03-03T00:03:07;102186.22;;;-0.46;97.32
65557;BME280;52200;53.490;14.376;2023-03-03T00:05:34;102181.09;;;-0.69;97.92
65557;BME280;52200;53.490;14.376;2023-03-03T00:08:00;102183.78;;;-0.45;98.41
65557;BME280;52200;53.490;14.376;2023-03-03T00:10:26;102179.97;;;-0.37;97.80
65557;BME280;52200;53.490;14.376;2023-03-03T00:12:51;102182.75;;;-0.50;97.83
65557;BME280;52200;53.490;14.376;2023-03-03T00:15:23;102183.41;;;-0.54;97.85
65557;BME280;52200;53.490;14.376;2023-03-03T00:17:49;102198.03;;;-0.82;98.49
65557;BME280;52200;53.490;14.376;2023-03-03T00:22:50;102192.88;;;-0.67;98.56
65557;BME280;52200;53.490;14.376;2023-03-03T00:25:32;102185.81;;;-0.36;98.81
65557;BME280;52200;53.490;14.376;2023-03-03T00:28:22;102190.75;;;-0.38;98.67
65557;BME280;52200;53.490;14.376;2023-03-03T00:30:50;102193.09;;;-0.21;97.88
65557;BME280;52200;53.490;14.376;2023-03-03T00:33:29;102195.47;;;-0.63;98.13
65557;BME280;52200;53.490;14.376;2023-03-03T00:36:19;102193.16;;;-0.78;99.38
65557;BME280;52200;53.490;14.376;2023-03-03T00:38:47;102192.31;;;-0.79;99.93
65557;BME280;52200;53.490;14.376;2023-03-03T00:41:23;102183.78;;;-0.45;99.44
65557;BME280;52200;53.490;14.376;2023-03-03T00:43:50;102171.31;;;-0.65;99.30
65557;BME280;52200;53.490;14.376;2023-03-03T00:46:21;102177.16;;;-0.64;99.82
65557;BME280;52200;53.490;14.376;2023-03-03T00:48:48;102191.41;;;-0.61;99.39
65557;BME280;52200;53.490;14.376;2023-03-03T00:51:30;102186.53;;;-0.58;100.00
65557;BME280;52200;53.490;14.376;2023-03-03T00:53:56;102178.09;;;-0.21;99.92
65557;BME280;52200;53.490;14.376;2023-03-03T00:56:23;102180.22;;;-0.11;98.17
65557;BME280;52200;53.490;14.376;2023-03-03T00:58:49;102187.69;;;-0.11;97.96
65557;BME280;52200;53.490;14.376;2023-03-03T01:01:16;102179.66;;;-0.44;97.90
65557;BME280;52200;53.490;14.376;2023-03-03T01:03:42;102180.50;;;-0.24;98.41
65557;BME280;52200;53.490;14.376;2023-03-03T01:06:08;102184.69;;;-0.23;97.94
65557;BME280;52200;53.490;14.376;2023-03-03T01:08:34;102184.44;;;-0.29;97.60
65557;BME280;52200;53.490;14.376;2023-03-03T01:11:22;102172.97;;;-0.45;98.04
65557;BME280;52200;53.490;14.376;2023-03-03T01:13:50;102166.03;;;-0.31;98.14
65557;BME280;52200;53.490;14.376;2023-03-03T01:16:16;102168.69;;;-0.68;98.48
65557;BME280;52200;53.490;14.376;2023-03-03T01:18:42;102167.91;;;-0.67;99.21
65557;BME280;52200;53.490;14.376;2023-03-03T01:21:08;102169.72;;;-0.43;99.06
65557;BME280;52200;53.490;14.376;2023-03-03T01:23:34;102176.47;;;-0.21;98.09
65557;BME280;52200;53.490;14.376;2023-03-03T01:26:00;102169.47;;;-0.49;96.79
65557;BME280;52200;53.490;14.376;2023-03-03T01:28:25;102176.28;;;-0.65;98.08
65557;BME280;52200;53.490;14.376;2023-03-03T01:30:51;102163.03;;;-0.63;98.58
65557;BME280;52200;53.490;14.376;2023-03-03T01:33:16;102150.59;;;-0.62;98.36
65557;BME280;52200;53.490;14.376;2023-03-03T01:35:46;102161.78;;;-0.54;98.17
65557;BME280;52200;53.490;14.376;2023-03-03T01:38:13;102145.81;;;-0.38;98.29
65557;BME280;52200;53.490;14.376;2023-03-03T01:40:40;102146.69;;;-0.57;98.10
65557;BME280;52200;53.490;14.376;2023-03-03T01:43:05;102160.16;;;-0.53;98.05
65557;BME280;52200;53.490;14.376;2023-03-03T01:48:15;102158.44;;;-0.54;99.10
65557;BME280;52200;53.490;14.376;2023-03-03T01:51:01;102151.75;;;-0.55;98.02
65557;BME280;52200;53.490;14.376;2023-03-03T01:53:41;102153.25;;;-0.59;97.97
65557;BME280;52200;53.490;14.376;2023-03-03T01:56:08;102152.00;;;-0.49;98.79
65557;BME280;52200;53.490;14.376;2023-03-03T01:58:36;102156.78;;;-0.34;97.92
65557;BME280;52200;53.490;14.376;2023-03-03T02:01:07;102165.31;;;-0.68;98.07
65557;BME280;52200;53.490;14.376;2023-03-03T02:03:35;102178.41;;;-0.54;97.94
65557;BME280;52200;53.490;14.376;2023-03-03T02:06:07;102181.34;;;-0.43;98.52
65557;BME280;52200;53.490;14.376;2023-03-03T02:08:40;102187.31;;;-0.40;97.96
65557;BME280;52200;53.490;14.376;2023-03-03T02:11:09;102178.53;;;-0.71;98.39
65557;BME280;52200;53.490;14.376;2023-03-03T02:13:35;102178.66;;;-0.87;100.00
65557;BME280;52200;53.490;14.376;2023-03-03T02:16:01;102179.06;;;-0.78;100.00
65557;BME280;52200;53.490;14.376;2023-03-03T02:18:26;102177.53;;;-0.94;100.00
65557;BME280;52200;53.490;14.376;2023-03-03T02:21:00;102176.66;;;-0.94;100.00
65557;BME280;52200;53.490;14.376;2023-03-03T02:23:41;102167.81;;;-0.68;100.00
65557;BME280;52200;53.490;14.376;2023-03-03T02:26:15;102156.63;;;-0.78;100.00
65557;BME280;52200;53.490;14.376;2023-03-03T02:28:41;102154.63;;;-0.85;100.00
65557;BME280;52200;53.490;14.376;2023-03-03T02:31:11;102153.50;;;-0.53;100.00
65557;BME280;52200;53.490;14.376;2023-03-03T02:33:40;102149.56;;;-0.47;99.34
65557;BME280;52200;53.490;14.376;2023-03-03T02:36:05;102152.66;;;-0.12;98.98
65557;BME280;52200;53.490;14.376;2023-03-03T02:44:05;102150.38;;;-0.27;98.43
65557;BME280;52200;53.490;14.376;2023-03-03T02:46:34;102143.25;;;-0.39;98.25
65557;BME280;52200;53.490;14.376;2023-03-03T02:48:59;102140.88;;;-0.36;98.93
65557;BME280;52200;53.490;14.376;2023-03-03T02:51:25;102142.22;;;-0.44;98.05
65557;BME280;52200;53.490;14.376;2023-03-03T02:53:51;102138.38;;;-0.36;98.42
65557;BME280;52200;53.490;14.376;2023-03-03T02:56:16;102128.72;;;-0.28;97.37
65557;BME280;52200;53.490;14.376;2023-03-03T02:58:41;102132.81;;;-0.50;98.01
65557;BME280;52200;53.490;14.376;2023-03-03T03:01:07;102138.28;;;-0.18;98.04
65557;BME280;52200;53.490;14.376;2023-03-03T03:03:32;102142.00;;;-0.49;97.81
65557;BME280;52200;53.490;14.376;2023-03-03T03:05:58;102143.38;;;-0.15;97.88
65557;BME280;52200;53.490;14.376;2023-03-03T03:08:23;102139.50;;;-0.29;97.68
65557;BME280;52200;53.490;14.376;2023-03-03T03:10:49;102134.38;;;-0.33;98.55
65557;BME280;52200;53.490;14.376;2023-03-03T03:13:14;102140.03;;;-0.37;98.37
65557;BME280;52200;53.490;14.376;2023-03-03T03:15:40;102140.72;;;-0.41;98.66
65557;BME280;52200;53.490;14.376;2023-03-03T03:18:05;102129.13;;;-0.58;98.56
65557;BME280;52200;53.490;14.376;2023-03-03T03:20:35;102130.22;;;-0.53;99.92
65557;BME280;52200;53.490;14.376;2023-03-03T03:23:01;102126.38;;;-0.65;99.60
65557;BME280;52200;53.490;14.376;2023-03-03T03:25:26;102126.63;;;-0.39;99.59
65557;BME280;52200;53.490;14.376;2023-03-03T03:27:52;102123.09;;;-0.44;99.65
65557;BME280;52200;53.490;14.376;2023-03-03T03:30:17;102126.09;;;-0.31;99.35
65557;BME280;52200;53.490;14.376;2023-03-03T03:32:45;102118.31;;;-0.59;99.43
65557;BME280;52200;53.490;14.376;2023-03-03T03:35:10;102116.28;;;-0.48;99.79
65557;BME280;52200;53.490;14.376;2023-03-03T03:37:35;102114.78;;;-0.23;99.54
65557;BME280;52200;53.490;14.376;2023-03-03T03:40:01;102113.56;;;-0.33;99.39
65557;BME280;52200;53.490;14.376;2023-03-03T03:42:26;102112.59;;;-0.56;99.69
65557;BME280;52200;53.490;14.376;2023-03-03T03:44:52;102110.50;;;-0.26;99.64
65557;BME280;52200;53.490;14.376;2023-03-03T03:47:17;102106.16;;;-0.30;98.84
65557;BME280;52200;53.490;14.376;2023-03-03T03:49:42;102111.91;;;-0.33;98.79
65557;BME280;52200;53.490;14.376;2023-03-03T03:52:08;102104.16;;;-0.39;99.50
65557;BME280;52200;53.490;14.376;2023-03-03T03:54:33;102109.41;;;-0.33;98.83
65557;BME280;52200;53.490;14.376;2023-03-03T03:56:59;102120.31;;;-0.09;98.94
65557;BME280;52200;53.490;14.376;2023-03-03T03:59:24;102104.16;;;-0.39;98.52
65557;BME280;52200;53.490;14.376;2023-03-03T04:01:49;102105.94;;;-0.56;99.51
65557;BME280;52200;53.490;14.376;2023-03-03T04:04:15;102099.06;;;-0.42;99.52
65557;BME280;52200;53.490;14.376;2023-03-03T04:06:40;102103.06;;;-0.45;99.65
65557;BME280;52200;53.490;14.376;2023-03-03T04:09:06;102087.84;;;-0.09;99.02
65557;BME280;52200;53.490;14.376;2023-03-03T04:11:31;102092.78;;;-0.11;98.55
65557;BME280;52200;53.490;14.376;2023-03-03T04:13:56;102088.69;;;-0.09;97.99
65557;BME280;52200;53.490;14.376;2023-03-03T04:16:22;102082.56;;;-0.17;98.29
65557;BME280;52200;53.490;14.376;2023-03-03T04:18:47;102080.94;;;-0.15;97.87
65557;BME280;52200;53.490;14.376;2023-03-03T04:21:14;102080.22;;;-0.34;97.96
65557;BME280;52200;53.490;14.376;2023-03-03T04:23:40;102077.56;;;-0.38;98.25
65557;BME280;52200;53.490;14.376;2023-03-03T04:26:06;102088.66;;;-0.51;99.39
65557;BME280;52200;53.490;14.376;2023-03-03T04:28:31;102093.31;;;-0.39;99.37
65557;BME280;52200;53.490;14.376;2023-03-03T04:30:57;102105.63;;;-0.44;99.04
65557;BME280;52200;53.490;14.376;2023-03-03T04:33:22;102096.31;;;-0.68;99.59
65557;BME280;52200;53.490;14.376;2023-03-03T04:35:47;102103.22;;;-0.82;100.00
65557;BME280;52200;53.490;14.376;2023-03-03T04:38:13;102095.75;;;-0.82;100.00
65557;BME280;52200;53.490;14.376;2023-03-03T04:40:41;102090.94;;;-0.77;99.87
65557;BME280;52200;53.490;14.376;2023-03-03T04:43:08;102091.88;;;-0.94;100.00
65557;BME280;52200;53.490;14.376;2023-03-03T04:45:34;102094.44;;;-1.12;100.00
65557;BME280;52200;53.490;14.376;2023-03-03T04:47:59;102091.72;;;-1.17;100.00
65557;BME280;52200;53.490;14.376;2023-03-03T04:50:24;102091.66;;;-0.79;100.00
65557;BME280;52200;53.490;14.376;2023-03-03T04:52:50;102104.78;;;-0.84;100.00
65557;BME280;52200;53.490;14.376;2023-03-03T04:55:15;102106.38;;;-0.86;100.00
65557;BME280;52200;53.490;14.376;2023-03-03T04:57:41;102110.63;;;-0.83;100.00
65557;BME280;52200;53.490;14.376;2023-03-03T05:00:08;102107.09;;;-0.69;100.00
65557;BME280;52200;53.490;14.376;2023-03-03T05:02:33;102105.38;;;-0.89;100.00
65557;BME280;52200;53.490;14.376;2023-03-03T05:04:59;102104.00;;;-1.02;100.00
65557;BME280;52200;53.490;14.376;2023-03-03T05:07:24;102104.25;;;-1.16;100.00
65557;BME280;52200;53.490;14.376;2023-03-03T05:09:50;102103.41;;;-1.16;100.00
65557;BME280;52200;53.490;14.376;2023-03-03T05:12:15;102099.22;;;-0.98;100.00
65557;BME280;52200;53.490;14.376;2023-03-03T05:14:41;102097.75;;;-1.12;100.00
65557;BME280;52200;53.490;14.376;2023-03-03T05:17:06;102097.25;;;-1.05;100.00
65557;BME280;52200;53.490;14.376;2023-03-03T05:19:32;102106.09;;;-1.11;100.00
65557;BME280;52200;53.490;14.376;2023-03-03T05:21:59;102105.72;;;-1.01;100.00
65557;BME280;52200;53.490;14.376;2023-03-03T05:24:24;102108.28;;;-1.00;100.00
65557;BME280;52200;53.490;14.376;2023-03-03T05:26:50;102095.13;;;-0.95;100.00
65557;BME280;52200;53.490;14.376;2023-03-03T05:29:15;102104.22;;;-0.98;100.00
65557;BME280;52200;53.490;14.376;2023-03-03T05:31:41;102108.69;;;-0.90;100.00
65557;BME280;52200;53.490;14.376;2023-03-03T05:34:06;102103.16;;;-0.83;100.00
65557;BME280;52200;53.490;14.376;2023-03-03T05:36:32;102108.53;;;-0.74;100.00
65557;BME280;52200;53.490;14.376;2023-03-03T05:38:57;102105.00;;;-0.59;100.00
65557;BME280;52200;53.490;14.376;2023-03-03T05:41:22;102109.16;;;-0.58;100.00
65557;BME280;52200;53.490;14.376;2023-03-03T05:43:48;102115.59;;;-0.44;100.00
65557;BME280;52200;53.490;14.376;2023-03-03T05:46:13;102121.78;;;-0.94;100.00
65557;BME280;52200;53.490;14.376;2023-03-03T05:48:38;102136.88;;;-1.11;100.00
65557;BME280;52200;53.490;14.376;2023-03-03T05:51:04;102133.41;;;-1.15;100.00
65557;BME280;52200;53.490;14.376;2023-03-03T05:53:31;102127.19;;;-1.05;100.00
65557;BME280;52200;53.490;14.376;2023-03-03T05:55:56;102129.66;;;-1.05;100.00
65557;BME280;52200;53.490;14.376;2023-03-03T05:58:22;102136.44;;;-1.02;100.00
65557;BME280;52200;53.490;14.376;2023-03-03T06:00:47;102131.06;;;-0.72;100.00
65557;BME280;52200;53.490;14.376;2023-03-03T06:03:12;102131.94;;;-0.72;100.00
65557;BME280;52200;53.490;14.376;2023-03-03T06:05:38;102130.84;;;-0.57;100.00
65557;BME280;52200;53.490;14.376;2023-03-03T06:08:03;102125.88;;;-0.77;100.00
65557;BME280;52200;53.490;14.376;2023-03-03T06:10:29;102116.81;;;-0.75;100.00
65557;BME280;52200;53.490;14.376;2023-03-03T06:12:55;102120.41;;;-0.68;100.00
65557;BME280;52200;53.490;14.376;2023-03-03T06:15:23;102117.75;;;-0.73;100.00
65557;BME280;52200;53.490;14.376;2023-03-03T06:17:48;102112.06;;;-0.69;99.48
65557;BME280;52200;53.490;14.376;2023-03-03T06:20:14;102119.63;;;-0.87;99.67
65557;BME280;52200;53.490;14.376;2023-03-03T06:22:39;102121.00;;;-1.13;100.00
65557;BME280;52200;53.490;14.376;2023-03-03T06:25:05;102112.59;;;-0.95;100.00
65557;BME280;52200;53.490;14.376;2023-03-03T06:27:31;102131.56;;;-1.19;100.00
65557;BME280;52200;53.490;14.376;2023-03-03T06:29:56;102124.28;;;-0.94;100.00
65557;BME280;52200;53.490;14.376;2023-03-03T06:32:22;102118.00;;;-0.86;100.00
65557;BME280;52200;53.490;14.376;2023-03-03T06:34:47;102120.84;;;-0.38;99.36
65557;BME280;52200;53.490;14.376;2023-03-03T06:37:12;102126.94;;;-0.31;99.79
65557;BME280;52200;53.490;14.376;2023-03-03T06:39:38;102133.13;;;-0.42;98.13
65557;BME280;52200;53.490;14.376;2023-03-03T06:42:03;102125.41;;;-0.27;96.99
65557;BME280;52200;53.490;14.376;2023-03-03T06:44:28;102121.44;;;-0.43;97.90
65557;BME280;52200;53.490;14.376;2023-03-03T06:46:54;102112.69;;;-0.12;97.64
65557;BME280;52200;53.490;14.376;2023-03-03T06:49:21;102119.16;;;0.04;96.74
65557;BME280;52200;53.490;14.376;2023-03-03T06:51:47;102113.38;;;0.05;96.07
65557;BME280;52200;53.490;14.376;2023-03-03T06:54:15;102128.28;;;-0.18;96.20
65557;BME280;52200;53.490;14.376;2023-03-03T06:56:42;102134.47;;;-0.10;95.89
65557;BME280;52200;53.490;14.376;2023-03-03T06:59:19;102133.00;;;-0.05;96.28
65557;BME280;52200;53.490;14.376;2023-03-03T07:01:46;102127.47;;;0.03;96.09
65557;BME280;52200;53.490;14.376;2023-03-03T07:06:41;102138.22;;;-0.60;96.75
65557;BME280;52200;53.490;14.376;2023-03-03T07:09:27;102135.56;;;-0.44;97.07
65557;BME280;52200;53.490;14.376;2023-03-03T07:12:00;102133.78;;;-0.06;96.71
65557;BME280;52200;53.490;14.376;2023-03-03T07:14:28;102130.84;;;0.05;96.19
65557;BME280;52200;53.490;14.376;2023-03-03T07:16:59;102131.19;;;0.35;95.60
65557;BME280;52200;53.490;14.376;2023-03-03T07:19:33;102133.28;;;0.24;94.73
65557;BME280;52200;53.490;14.376;2023-03-03T07:22:20;102130.91;;;0.27;94.46
65557;BME280;52200;53.490;14.376;2023-03-03T07:24:48;102127.69;;;0.09;95.05
65557;BME280;52200;53.490;14.376;2023-03-03T07:27:27;102135.03;;;0.27;94.44
65557;BME280;52200;53.490;14.376;2023-03-03T07:29:59;102139.44;;;0.55;94.36
65557;BME280;52200;53.490;14.376;2023-03-03T07:34:58;102136.28;;;0.82;92.59
65557;BME280;52200;53.490;14.376;2023-03-03T07:37:31;102142.53;;;0.71;91.71
65557;BME280;52200;53.490;14.376;2023-03-03T07:39:59;102147.75;;;0.54;92.56
65557;BME280;52200;53.490;14.376;2023-03-03T07:45:00;102159.81;;;0.64;92.71
65557;BME280;52200;53.490;14.376;2023-03-03T07:47:29;102157.19;;;0.84;92.99
65557;BME280;52200;53.490;14.376;2023-03-03T07:49:57;102161.50;;;1.11;91.25
65557;BME280;52200;53.490;14.376;2023-03-03T07:52:30;102160.59;;;1.33;90.53
65557;BME280;52200;53.490;14.376;2023-03-03T07:55:01;102166.63;;;1.63;89.40
65557;BME280;52200;53.490;14.376;2023-03-03T07:57:44;102165.44;;;1.28;89.15
65557;BME280;52200;53.490;14.376;2023-03-03T08:02:46;102168.03;;;1.30;88.54
65557;BME280;52200;53.490;14.376;2023-03-03T08:08:28;102163.72;;;1.03;90.40
65557;BME280;52200;53.490;14.376;2023-03-03T08:10:59;102166.25;;;1.52;88.87
65557;BME280;52200;53.490;14.376;2023-03-03T08:21:15;102142.81;;;1.25;87.87
65557;BME280;52200;53.490;14.376;2023-03-03T08:23:41;102138.91;;;1.58;88.14
65557;BME280;52200;53.490;14.376;2023-03-03T08:26:07;102137.25;;;1.58;88.69
65557;BME280;52200;53.490;14.376;2023-03-03T08:28:33;102138.44;;;1.44;89.07
65557;BME280;52200;53.490;14.376;2023-03-03T08:30:59;102135.84;;;1.67;87.99
65557;BME280;52200;53.490;14.376;2023-03-03T08:33:24;102130.66;;;1.62;88.05
65557;BME280;52200;53.490;14.376;2023-03-03T08:35:50;102127.94;;;1.80;87.58
65557;BME280;52200;53.490;14.376;2023-03-03T08:38:18;102138.38;;;1.68;87.13
65557;BME280;52200;53.490;14.376;2023-03-03T08:40:44;102139.16;;;1.66;87.81
65557;BME280;52200;53.490;14.376;2023-03-03T08:43:10;102136.97;;;1.75;87.96
65557;BME280;52200;53.490;14.376;2023-03-03T08:45:41;102134.03;;;1.37;88.59
65557;BME280;52200;53.490;14.376;2023-03-03T08:48:06;102137.09;;;1.29;89.16
65557;BME280;52200;53.490;14.376;2023-03-03T08:50:31;102141.00;;;1.45;88.74
65557;BME280;52200;53.490;14.376;2023-03-03T08:52:57;102137.66;;;1.71;87.95
65557;BME280;52200;53.490;14.376;2023-03-03T08:55:22;102143.41;;;1.42;87.84
65557;BME280;52200;53.490;14.376;2023-03-03T08:57:48;102143.78;;;1.29;88.68
65557;BME280;52200;53.490;14.376;2023-03-03T09:00:16;102154.47;;;1.01;89.80
65557;BME280;52200;53.490;14.376;2023-03-03T09:02:42;102154.19;;;1.66;89.15
65557;BME280;52200;53.490;14.376;2023-03-03T09:05:08;102150.47;;;1.80;87.03
65557;BME280;52200;53.490;14.376;2023-03-03T09:07:34;102147.19;;;1.81;87.16
65557;BME280;52200;53.490;14.376;2023-03-03T09:09:59;102154.72;;;2.08;86.50
65557;BME280;52200;53.490;14.376;2023-03-03T09:12:45;102149.81;;;1.60;86.69
65557;BME280;52200;53.490;14.376;2023-03-03T09:15:25;102155.84;;;1.65;88.35
65557;BME280;52200;53.490;14.376;2023-03-03T09:17:52;102155.28;;;1.74;87.84
65557;BME280;52200;53.490;14.376;2023-03-03T09:20:43;102154.38;;;1.46;87.94
65557;BME280;52200;53.490;14.376;2023-03-03T09:26:46;102149.66;;;1.80;87.39
65557;BME280;52200;53.490;14.376;2023-03-03T09:29:31;102156.34;;;1.81;86.94
65557;BME280;52200;53.490;14.376;2023-03-03T09:32:20;102155.28;;;1.74;88.14
65557;BME280;52200;53.490;14.376;2023-03-03T09:34:47;102159.69;;;1.55;87.83
65557;BME280;52200;53.490;14.376;2023-03-03T09:37:34;102157.09;;;2.04;87.37
65557;BME280;52200;53.490;14.376;2023-03-03T09:40:38;102159.88;;;1.86;87.59
65557;BME280;52200;53.490;14.376;2023-03-03T09:43:04;102163.63;;;2.26;86.72
65557;BME280;52200;53.490;14.376;2023-03-03T09:45:43;102157.59;;;2.77;86.25
65557;BME280;52200;53.490;14.376;2023-03-03T09:55:58;102154.69;;;3.22;83.33
65557;BME280;52200;53.490;14.376;2023-03-03T09:59:34;102156.28;;;3.20;83.68
65557;BME280;52200;53.490;14.376;2023-03-03T10:10:10;102150.19;;;3.11;83.84
65557;BME280;52200;53.490;14.376;2023-03-03T10:15:53;102144.88;;;3.00;82.72
65557;BME280;52200;53.490;14.376;2023-03-03T10:18:27;102149.88;;;2.98;84.25
65557;BME280;52200;53.490;14.376;2023-03-03T10:21:04;102159.50;;;2.55;84.80
65557;BME280;52200;53.490;14.376;2023-03-03T10:26:44;102154.53;;;2.30;86.68
65557;BME280;52200;53.490;14.376;2023-03-03T10:41:27;102140.25;;;3.81;82.77
65557;BME280;52200;53.490;14.376;2023-03-03T10:44:01;102146.16;;;4.18;81.76
65557;BME280;52200;53.490;14.376;2023-03-03T11:05:52;102128.59;;;3.83;81.97
65557;BME280;52200;53.490;14.376;2023-03-03T11:11:35;102126.25;;;4.27;81.41
65557;BME280;52200;53.490;14.376;2023-03-03T11:14:22;102115.13;;;4.57;80.29
65557;BME280;52200;53.490;14.376;2023-03-03T11:16:59;102110.28;;;4.27;79.50
65557;BME280;52200;53.490;14.376;2023-03-03T11:28:07;102109.16;;;4.50;79.02
65557;BME280;52200;53.490;14.376;2023-03-03T11:36:13;102109.00;;;5.84;76.59
65557;BME280;52200;53.490;14.376;2023-03-03T11:38:52;102095.63;;;4.90;78.13
65557;BME280;52200;53.490;14.376;2023-03-03T11:44:18;102101.06;;;5.60;76.40
65557;BME280;52200;53.490;14.376;2023-03-03T11:46:58;102097.66;;;5.08;76.98
65557;BME280;52200;53.490;14.376;2023-03-03T11:49:31;102093.56;;;5.14;78.74
65557;BME280;52200;53.490;14.376;2023-03-03T11:52:16;102088.84;;;4.86;78.81
65557;BME280;52200;53.490;14.376;2023-03-03T11:54:52;102084.41;;;5.18;78.56
65557;BME280;52200;53.490;14.376;2023-03-03T11:57:57;102079.06;;;5.48;78.58
65557;BME280;52200;53.490;14.376;2023-03-03T12:00:44;102071.47;;;6.02;77.53
65557;BME280;52200;53.490;14.376;2023-03-03T12:03:31;102067.66;;;5.72;76.53
65557;BME280;52200;53.490;14.376;2023-03-03T12:08:36;102059.06;;;4.63;79.01
65557;BME280;52200;53.490;14.376;2023-03-03T12:11:11;102066.47;;;5.01;78.99
65557;BME280;52200;53.490;14.376;2023-03-03T12:16:42;102057.66;;;5.78;77.64
65557;BME280;52200;53.490;14.376;2023-03-03T12:19:11;102050.47;;;5.48;76.40
65557;BME280;52200;53.490;14.376;2023-03-03T12:21:47;102049.91;;;5.64;77.01
65557;BME280;52200;53.490;14.376;2023-03-03T12:24:33;102042.34;;;5.66;76.04
65557;BME280;52200;53.490;14.376;2023-03-03T12:30:09;102044.09;;;5.70;77.31
65557;BME280;52200;53.490;14.376;2023-03-03T12:35:59;102047.94;;;5.46;78.17
65557;BME280;52200;53.490;14.376;2023-03-03T12:38:44;102037.13;;;6.10;76.46
65557;BME280;52200;53.490;14.376;2023-03-03T12:41:28;102043.88;;;6.13;75.90
65557;BME280;52200;53.490;14.376;2023-03-03T12:44:07;102036.97;;;6.01;76.07
65557;BME280;52200;53.490;14.376;2023-03-03T12:46:53;102035.97;;;5.90;76.34
65557;BME280;52200;53.490;14.376;2023-03-03T12:49:34;102031.72;;;5.86;77.23
65557;BME280;52200;53.490;14.376;2023-03-03T12:55:50;102014.56;;;6.23;75.18
65557;BME280;52200;53.490;14.376;2023-03-03T12:58:39;102012.09;;;6.27;75.40
65557;BME280;52200;53.490;14.376;2023-03-03T13:04:09;102015.75;;;5.87;75.75
65557;BME280;52200;53.490;14.376;2023-03-03T13:06:57;102011.06;;;5.53;77.09
65557;BME280;52200;53.490;14.376;2023-03-03T13:15:20;102008.16;;;5.85;77.52
65557;BME280;52200;53.490;14.376;2023-03-03T13:17:56;102010.00;;;5.95;76.59
65557;BME280;52200;53.490;14.376;2023-03-03T13:25:58;102006.16;;;5.09;77.18
65557;BME280;52200;53.490;14.376;2023-03-03T13:28:31;102008.59;;;5.04;78.04
65557;BME280;52200;53.490;14.376;2023-03-03T13:31:18;101997.66;;;5.04;77.85
65557;BME280;52200;53.490;14.376;2023-03-03T13:33:53;101999.84;;;4.83;79.35
65557;BME280;52200;53.490;14.376;2023-03-03T13:36:46;101988.81;;;4.75;79.10
65557;BME280;52200;53.490;14.376;2023-03-03T13:39:26;101990.75;;;4.92;79.09
65557;BME280;52200;53.490;14.376;2023-03-03T13:42:00;101984.59;;;5.25;78.02
65557;BME280;52200;53.490;14.376;2023-03-03T13:44:40;101973.84;;;4.84;78.86
65557;BME280;52200;53.490;14.376;2023-03-03T13:47:20;101971.06;;;5.20;78.27
65557;BME280;52200;53.490;14.376;2023-03-03T13:50:26;101965.63;;;5.47;78.02
65557;BME280;52200;53.490;14.376;2023-03-03T14:01:22;101956.75;;;5.75;76.72
65557;BME280;52200;53.490;14.376;2023-03-03T14:04:19;101954.81;;;5.56;76.72
65557;BME280;52200;53.490;14.376;2023-03-03T14:07:18;101955.81;;;5.10;77.40
65557;BME280;52200;53.490;14.376;2023-03-03T14:15:26;101946.19;;;5.41;77.79
65557;BME280;52200;53.490;14.376;2023-03-03T14:20:58;101948.72;;;5.40;78.08
65557;BME280;52200;53.490;14.376;2023-03-03T14:28:40;101944.66;;;4.96;78.09
65557;BME280;52200;53.490;14.376;2023-03-03T14:34:00;101947.78;;;4.82;79.37
65557;BME280;52200;53.490;14.376;2023-03-03T14:36:30;101937.84;;;4.41;80.49
65557;BME280;52200;53.490;14.376;2023-03-03T14:38:56;101936.13;;;4.40;80.55
65557;BME280;52200;53.490;14.376;2023-03-03T14:41:39;101932.56;;;4.27;81.61
65557;BME280;52200;53.490;14.376;2023-03-03T14:44:27;101918.88;;;4.14;82.01
65557;BME280;52200;53.490;14.376;2023-03-03T14:49:35;101919.34;;;4.39;82.10
65557;BME280;52200;53.490;14.376;2023-03-03T14:52:19;101925.34;;;4.46;81.77
65557;BME280;52200;53.490;14.376;2023-03-03T14:54:47;101916.53;;;4.68;80.43
65557;BME280;52200;53.490;14.376;2023-03-03T15:00:02;101913.38;;;4.32;81.28
65557;BME280;52200;53.490;14.376;2023-03-03T15:03:02;101915.72;;;4.71;80.18
65557;BME280;52200;53.490;14.376;2023-03-03T15:05:33;101920.47;;;4.54;80.33
65557;BME280;52200;53.490;14.376;2023-03-03T15:16:17;101891.28;;;4.65;80.43
65557;BME280;52200;53.490;14.376;2023-03-03T15:21:31;101890.38;;;4.14;79.95
65557;BME280;52200;53.490;14.376;2023-03-03T15:34:46;101886.81;;;4.47;79.82
65557;BME280;52200;53.490;14.376;2023-03-03T15:38:26;101884.00;;;4.33;80.35
65557;BME280;52200;53.490;14.376;2023-03-03T15:53:57;101862.03;;;4.23;80.80
65557;BME280;52200;53.490;14.376;2023-03-03T15:56:36;101868.66;;;4.17;81.16
65557;BME280;52200;53.490;14.376;2023-03-03T16:01:39;101857.31;;;4.40;80.69
65557;BME280;52200;53.490;14.376;2023-03-03T16:04:10;101867.28;;;4.35;80.21
65557;BME280;52200;53.490;14.376;2023-03-03T16:06:46;101858.19;;;3.96;81.58
65557;BME280;52200;53.490;14.376;2023-03-03T16:09:29;101858.16;;;3.93;81.83
65557;BME280;52200;53.490;14.376;2023-03-03T16:18:13;101846.56;;;4.01;82.73
65557;BME280;52200;53.490;14.376;2023-03-03T16:21:05;101856.00;;;4.13;81.70
65557;BME280;52200;53.490;14.376;2023-03-03T16:23:58;101850.63;;;3.94;81.57
65557;BME280;52200;53.490;14.376;2023-03-03T16:26:46;101846.56;;;4.01;82.22
65557;BME280;52200;53.490;14.376;2023-03-03T16:31:54;101848.31;;;4.05;81.95
65557;BME280;52200;53.490;14.376;2023-03-03T16:34:29;101846.16;;;4.25;81.15
65557;BME280;52200;53.490;14.376;2023-03-03T16:37:02;101837.59;;;3.71;81.58
65557;BME280;52200;53.490;14.376;2023-03-03T16:39:55;101834.22;;;3.69;83.06